Canton, MN (55922)

1:24 AM CDT on October 25, 2014 (GMT -0500)
Eagle Bluff ELC | Change Station
CLOSE
Current Station
Personal Weather Station
Location: Lanesboro, MN
Elevation: 1003 ft
Nearby Weather Stations
Active Advisory: Dense Fog Advisory

Elev 1003 ft 43.76 °N, 92.00 °W | Updated 47 seconds ago

Fog
Fog
54.0 °F
Feels Like 54.0 °F
N
0.0
Wind Variable Wind from WSW
Gusts 4.4 mph

Today
High -- | Low -- °F
--% Chance of Precip.
Yesterday
High -- | Low -- °F
Precip. -- in
7:34 AM 6:08 PM
New Moon, 2% visible
Pressure 29.92 in
Visibility 7.0 miles
Clouds Clear
Dew Point 54 °F
Humidity 100%
Rainfall 0.00 in
Snow Depth Not available.
UV 0 out of 12
Pollen 2.20 out of 12
Air Quality Not available.
Flu Activity Sporadic
METAR KFKA 250616Z AUTO 24008KT 7SM CLR 12/11 A2992 RMK AO2 T01150110

More Conditions Fewer Conditions

Pressure 29.92 in
Visibility 7.0 miles
Clouds Clear
Dew Point 54 °F
Humidity 100%
Rainfall 0.00 in
Snow Depth Not available.
UV 0 out of 12
Pollen 2.20 out of 12
Air Quality Not available.
Flu Activity Sporadic
METAR KFKA 250616Z AUTO 24008KT 7SM CLR 12/11 A2992 RMK AO2 T01150110

More Conditions Fewer Conditions

10-Day Weather Forecast

Almanac

Astronomy

Oct. 25, 2014 Rise Set
Actual Time 7:34 AM CDT 6:08 PM CDT
Civil Twilight 7:04 AM CDT 6:37 PM CDT
Nautical Twilight 6:31 AM CDT 7:11 PM CDT
Astronomical Twilight 5:58 AM CDT 7:44 PM CDT
Moon 9:15 AM CDT 7:29 PM CDT
Length of Visible Light 11h 32m
Length of Day
10h 34m
Tomorrow will be 2m 46s shorter.
New Moon, 2% of the Moon is Illuminated
Today
New Moon
Oct 30
First Quarter
Nov 6
Full
Nov 14
Last Quarter
Nov 22
New

Today's Extremes

State Highs State Lows

Community

WunderPhotos

Upload Photos

1,764,785 photos uploaded!

Nearby

Snow Depth

Station Depth Elevation
No new snow has been reported.

Earthquake Activity

City Distance Mag. Time & Date
No recent earthquake activity has been reported nearby.
Minimum magnitude displayed is 2.5.

Coastal Water Temperatures

Place Temperature
No Stations Reporting

Nearby Weather Stations